sensor_id;sensor_type;location;lat;lon;timestamp;noise_LAeq;noise_LA_min;noise_LA_max;noise_LA01;noise_LA95
64393;Laerm;50712;49.506;10.400;2023-02-12T18:32:29;37.07;26.64;68.81;;
64393;Laerm;50712;49.506;10.400;2023-02-12T18:33:00;38.52;30.01;61.98;;
64393;Laerm;50712;49.506;10.400;2023-02-12T18:33:30;32.79;29.67;44.45;;
64393;Laerm;50712;49.506;10.400;2023-02-12T18:34:03;38.64;30.33;61.25;;
64393;Laerm;50712;49.506;10.400;2023-02-12T18:34:33;38.52;30.80;62.09;;
64393;Laerm;50712;49.506;10.400;2023-02-12T18:35:05;36.73;30.23;59.08;;
64393;Laerm;50712;49.506;10.400;2023-02-12T18:35:36;35.51;31.90;45.69;;
64393;Laerm;50712;49.506;10.400;2023-02-12T18:36:12;34.53;29.78;51.76;;
64393;Laerm;50712;49.506;10.400;2023-02-12T18:36:43;39.91;29.69;57.71;;
64393;Laerm;50712;49.506;10.400;2023-02-12T18:37:13;55.04;30.53;72.09;;
64393;Laerm;50712;49.506;10.400;2023-02-12T18:38:14;35.40;30.21;51.16;;
64393;Laerm;50712;49.506;10.400;2023-02-12T18:38:47;42.90;31.69;63.06;;
64393;Laerm;50712;49.506;10.400;2023-02-12T18:39:17;38.21;32.33;54.37;;
64393;Laerm;50712;49.506;10.400;2023-02-12T18:39:47;40.93;31.99;62.88;;
64393;Laerm;50712;49.506;10.400;2023-02-12T18:40:18;36.10;30.34;57.35;;
64393;Laerm;50712;49.506;10.400;2023-02-12T18:40:48;32.74;30.26;37.72;;
64393;Laerm;50712;49.506;10.400;2023-02-12T18:41:21;32.56;30.58;40.23;;
64393;Laerm;50712;49.506;10.400;2023-02-12T18:41:52;32.31;29.96;46.00;;
64393;Laerm;50712;49.506;10.400;2023-02-12T18:42:23;33.04;30.41;40.33;;
64393;Laerm;50712;49.506;10.400;2023-02-12T18:42:53;36.96;32.18;47.28;;
64393;Laerm;50712;49.506;10.400;2023-02-12T18:43:23;35.96;31.42;44.91;;
64393;Laerm;50712;49.506;10.400;2023-02-12T18:43:55;37.20;30.62;52.76;;
64393;Laerm;50712;49.506;10.400;2023-02-12T18:44:25;38.39;30.15;63.85;;
64393;Laerm;50712;49.506;10.400;2023-02-12T18:44:56;31.84;29.25;40.46;;
64393;Laerm;50712;49.506;10.400;2023-02-12T18:45:26;31.80;30.03;36.58;;
64393;Laerm;50712;49.506;10.400;2023-02-12T18:45:56;31.40;29.12;37.76;;
64393;Laerm;50712;49.506;10.400;2023-02-12T18:46:29;31.81;29.20;37.95;;
64393;Laerm;50712;49.506;10.400;2023-02-12T18:46:59;38.27;30.64;60.39;;
64393;Laerm;50712;49.506;10.400;2023-02-12T18:47:30;32.07;29.35;47.38;;
64393;Laerm;50712;49.506;10.400;2023-02-12T18:48:00;31.33;29.05;43.67;;
64393;Laerm;50712;49.506;10.400;2023-02-12T18:48:30;32.45;30.12;44.59;;
64393;Laerm;50712;49.506;10.400;2023-02-12T18:49:01;68.02;30.20;94.28;;
64393;Laerm;50712;49.506;10.400;2023-02-12T18:49:32;32.65;29.95;50.77;;
64393;Laerm;50712;49.506;10.400;2023-02-12T18:50:03;33.10;30.43;41.22;;
64393;Laerm;50712;49.506;10.400;2023-02-12T18:50:33;33.28;30.30;43.14;;
64393;Laerm;50712;49.506;10.400;2023-02-12T18:51:06;33.10;29.87;38.69;;
64393;Laerm;50712;49.506;10.400;2023-02-12T18:51:36;33.57;29.70;48.75;;
64393;Laerm;50712;49.506;10.400;2023-02-12T18:52:10;31.46;29.45;37.82;;
64393;Laerm;50712;49.506;10.400;2023-02-12T18:53:10;31.76;29.56;39.52;;
64393;Laerm;50712;49.506;10.400;2023-02-12T18:53:41;32.02;29.96;39.03;;
64393;Laerm;50712;49.506;10.400;2023-02-12T18:54:12;32.02;29.96;39.03;;
64393;Laerm;50712;49.506;10.400;2023-02-12T18:54:43;30.94;28.94;38.47;;
64393;Laerm;50712;49.506;10.400;2023-02-12T18:55:44;32.08;29.75;36.41;;
64393;Laerm;50712;49.506;10.400;2023-02-12T18:56:14;31.57;29.30;36.99;;
64393;Laerm;50712;49.506;10.400;2023-02-12T18:56:45;32.58;30.01;44.62;;
64393;Laerm;50712;49.506;10.400;2023-02-12T18:57:18;33.01;29.91;35.88;;
64393;Laerm;50712;49.506;10.400;2023-02-12T18:57:49;32.83;30.03;35.93;;
64393;Laerm;50712;49.506;10.400;2023-02-12T18:58:19;32.07;29.22;38.34;;
64393;Laerm;50712;49.506;10.400;2023-02-12T18:58:54;35.05;29.46;50.86;;
64393;Laerm;50712;49.506;10.400;2023-02-12T18:59:25;30.86;28.71;35.16;;
64393;Laerm;50712;49.506;10.400;2023-02-12T18:59:55;30.34;28.58;33.93;;
64393;Laerm;50712;49.506;10.400;2023-02-12T19:00:26;30.61;28.64;34.10;;
64393;Laerm;50712;49.506;10.400;2023-02-12T19:00:56;31.36;29.09;44.40;;
64393;Laerm;50712;49.506;10.400;2023-02-12T19:01:27;35.78;30.06;44.95;;
64393;Laerm;50712;49.506;10.400;2023-02-12T19:01:57;36.07;30.64;44.37;;
64393;Laerm;50712;49.506;10.400;2023-02-12T19:02:27;36.89;31.07;46.70;;
64393;Laerm;50712;49.506;10.400;2023-02-12T19:02:58;38.35;33.99;44.83;;
64393;Laerm;50712;49.506;10.400;2023-02-12T19:03:28;39.19;32.18;51.96;;
64393;Laerm;50712;49.506;10.400;2023-02-12T19:04:00;39.45;29.93;55.50;;
64393;Laerm;50712;49.506;10.400;2023-02-12T19:04:31;30.94;28.58;37.91;;
64393;Laerm;50712;49.506;10.400;2023-02-12T19:05:01;30.53;28.62;46.31;;
64393;Laerm;50712;49.506;10.400;2023-02-12T19:05:31;30.79;28.17;42.82;;
64393;Laerm;50712;49.506;10.400;2023-02-12T19:06:03;30.64;28.26;33.65;;
64393;Laerm;50712;49.506;10.400;2023-02-12T19:06:39;30.31;28.55;35.12;;
64393;Laerm;50712;49.506;10.400;2023-02-12T19:07:09;29.99;28.51;33.73;;
64393;Laerm;50712;49.506;10.400;2023-02-12T19:07:40;30.40;28.39;43.41;;
64393;Laerm;50712;49.506;10.400;2023-02-12T19:08:10;30.37;28.55;35.69;;
64393;Laerm;50712;49.506;10.400;2023-02-12T19:08:41;30.39;28.50;34.98;;
64393;Laerm;50712;49.506;10.400;2023-02-12T19:09:13;30.97;28.68;43.39;;
64393;Laerm;50712;49.506;10.400;2023-02-12T19:09:45;30.35;28.20;40.46;;
64393;Laerm;50712;49.506;10.400;2023-02-12T19:10:16;30.73;28.74;42.80;;
64393;Laerm;50712;49.506;10.400;2023-02-12T19:10:46;31.10;28.22;42.42;;
64393;Laerm;50712;49.506;10.400;2023-02-12T19:11:18;34.02;28.87;43.73;;
64393;Laerm;50712;49.506;10.400;2023-02-12T19:11:51;31.56;28.47;42.00;;
64393;Laerm;50712;49.506;10.400;2023-02-12T19:12:21;30.55;28.51;41.38;;
64393;Laerm;50712;49.506;10.400;2023-02-12T19:12:51;31.40;28.55;44.89;;
64393;Laerm;50712;49.506;10.400;2023-02-12T19:13:22;31.75;29.08;49.25;;
64393;Laerm;50712;49.506;10.400;2023-02-12T19:13:53;30.92;28.88;39.26;;
64393;Laerm;50712;49.506;10.400;2023-02-12T19:14:25;30.98;29.00;45.71;;
64393;Laerm;50712;49.506;10.400;2023-02-12T19:14:55;32.11;29.40;39.05;;
64393;Laerm;50712;49.506;10.400;2023-02-12T19:15:26;32.59;29.28;47.63;;
64393;Laerm;50712;49.506;10.400;2023-02-12T19:15:56;33.30;28.14;55.65;;
64393;Laerm;50712;49.506;10.400;2023-02-12T19:16:27;29.67;28.08;34.34;;
64393;Laerm;50712;49.506;10.400;2023-02-12T19:16:57;30.46;28.23;39.74;;
64393;Laerm;50712;49.506;10.400;2023-02-12T19:17:28;33.66;29.30;48.47;;
64393;Laerm;50712;49.506;10.400;2023-02-12T19:17:58;33.78;29.94;45.85;;
64393;Laerm;50712;49.506;10.400;2023-02-12T19:18:28;32.36;29.57;36.42;;
64393;Laerm;50712;49.506;10.400;2023-02-12T19:18:59;31.96;29.01;47.84;;
64393;Laerm;50712;49.506;10.400;2023-02-12T19:19:31;30.98;28.76;38.79;;
64393;Laerm;50712;49.506;10.400;2023-02-12T19:20:02;30.04;28.47;35.67;;
64393;Laerm;50712;49.506;10.400;2023-02-12T19:20:32;30.31;28.47;33.07;;
64393;Laerm;50712;49.506;10.400;2023-02-12T19:21:04;30.61;28.36;44.32;;
64393;Laerm;50712;49.506;10.400;2023-02-12T19:21:35;30.21;28.35;32.44;;
64393;Laerm;50712;49.506;10.400;2023-02-12T19:22:06;43.56;28.74;54.33;;
64393;Laerm;50712;49.506;10.400;2023-02-12T19:22:36;34.54;28.29;43.25;;
64393;Laerm;50712;49.506;10.400;2023-02-12T19:23:07;31.01;28.23;48.84;;
64393;Laerm;50712;49.506;10.400;2023-02-12T19:23:39;39.33;28.84;63.48;;
64393;Laerm;50712;49.506;10.400;2023-02-12T19:24:10;31.06;28.81;34.79;;
64393;Laerm;50712;49.506;10.400;2023-02-12T19:24:41;31.39;28.67;34.69;;
64393;Laerm;50712;49.506;10.400;2023-02-12T19:25:11;31.53;29.20;40.43;;
64393;Laerm;50712;49.506;10.400;2023-02-12T19:25:42;30.90;28.95;33.47;;
64393;Laerm;50712;49.506;10.400;2023-02-12T19:26:15;30.16;28.38;33.73;;
64393;Laerm;50712;49.506;10.400;2023-02-12T19:26:49;29.83;28.49;31.98;;
64393;Laerm;50712;49.506;10.400;2023-02-12T19:27:20;29.89;28.08;37.02;;
64393;Laerm;50712;49.506;10.400;2023-02-12T19:27:50;29.83;28.44;34.36;;
64393;Laerm;50712;49.506;10.400;2023-02-12T19:28:21;29.97;28.18;42.79;;
64393;Laerm;50712;49.506;10.400;2023-02-12T19:28:51;31.86;28.25;39.57;;
64393;Laerm;50712;49.506;10.400;2023-02-12T19:29:52;40.14;30.13;49.31;;
64393;Laerm;50712;49.506;10.400;2023-02-12T19:30:22;34.56;29.38;54.97;;
64393;Laerm;50712;49.506;10.400;2023-02-12T19:30:53;30.76;28.71;36.96;;
64393;Laerm;50712;49.506;10.400;2023-02-12T19:31:38;31.50;28.44;37.87;;
64393;Laerm;50712;49.506;10.400;2023-02-12T19:32:09;30.95;28.38;38.45;;
64393;Laerm;50712;49.506;10.400;2023-02-12T19:33:10;30.37;28.41;33.99;;
64393;Laerm;50712;49.506;10.400;2023-02-12T19:33:42;29.75;28.29;31.66;;
64393;Laerm;50712;49.506;10.400;2023-02-12T19:34:16;29.82;28.30;36.71;;
64393;Laerm;50712;49.506;10.400;2023-02-12T19:34:48;30.07;28.21;36.67;;
64393;Laerm;50712;49.506;10.400;2023-02-12T19:35:18;29.88;28.30;33.34;;
64393;Laerm;50712;49.506;10.400;2023-02-12T19:35:49;30.43;28.39;46.09;;
64393;Laerm;50712;49.506;10.400;2023-02-12T19:36:20;30.32;28.41;38.23;;
64393;Laerm;50712;49.506;10.400;2023-02-12T19:36:50;34.92;28.97;56.10;;
64393;Laerm;50712;49.506;10.400;2023-02-12T19:37:21;33.66;30.36;46.87;;
64393;Laerm;50712;49.506;10.400;2023-02-12T19:37:52;33.57;29.21;53.97;;
64393;Laerm;50712;49.506;10.400;2023-02-12T19:38:22;31.36;28.39;51.56;;
64393;Laerm;50712;49.506;10.400;2023-02-12T19:38:52;30.24;28.01;38.53;;
64393;Laerm;50712;49.506;10.400;2023-02-12T19:39:23;31.23;28.30;45.83;;
64393;Laerm;50712;49.506;10.400;2023-02-12T19:39:54;37.54;27.89;54.83;;
64393;Laerm;50712;49.506;10.400;2023-02-12T19:40:24;31.37;28.71;38.07;;
64393;Laerm;50712;49.506;10.400;2023-02-12T19:41:05;30.00;28.32;35.94;;
64393;Laerm;50712;49.506;10.400;2023-02-12T19:41:36;31.01;28.68;38.12;;
64393;Laerm;50712;49.506;10.400;2023-02-12T19:42:12;30.37;28.48;39.46;;
64393;Laerm;50712;49.506;10.400;2023-02-12T19:42:43;33.56;28.68;51.23;;
64393;Laerm;50712;49.506;10.400;2023-02-12T19:43:14;33.70;28.58;55.04;;
64393;Laerm;50712;49.506;10.400;2023-02-12T19:43:45;40.12;29.53;51.23;;
64393;Laerm;50712;49.506;10.400;2023-02-12T19:44:18;30.91;28.67;35.27;;
64393;Laerm;50712;49.506;10.400;2023-02-12T19:44:49;31.32;28.96;37.65;;
64393;Laerm;50712;49.506;10.400;2023-02-12T19:45:19;41.64;29.76;64.25;;
64393;Laerm;50712;49.506;10.400;2023-02-12T19:45:50;31.15;28.90;40.80;;
64393;Laerm;50712;49.506;10.400;2023-02-12T19:46:21;30.62;28.64;33.19;;
64393;Laerm;50712;49.506;10.400;2023-02-12T19:46:51;29.92;28.15;36.35;;
64393;Laerm;50712;49.506;10.400;2023-02-12T19:47:22;39.81;28.69;56.74;;
64393;Laerm;50712;49.506;10.400;2023-02-12T19:47:52;31.40;29.24;33.95;;
64393;Laerm;50712;49.506;10.400;2023-02-12T19:48:22;30.48;28.54;34.89;;
64393;Laerm;50712;49.506;10.400;2023-02-12T19:49:00;30.82;28.73;35.38;;
64393;Laerm;50712;49.506;10.400;2023-02-12T19:49:30;31.15;28.38;44.02;;
64393;Laerm;50712;49.506;10.400;2023-02-12T19:50:01;29.65;28.04;32.97;;
64393;Laerm;50712;49.506;10.400;2023-02-12T19:50:31;29.88;27.81;40.49;;
64393;Laerm;50712;49.506;10.400;2023-02-12T19:51:02;38.11;28.33;47.16;;
64393;Laerm;50712;49.506;10.400;2023-02-12T19:51:33;40.95;28.27;57.62;;
64393;Laerm;50712;49.506;10.400;2023-02-12T19:52:03;46.37;28.57;64.83;;
64393;Laerm;50712;49.506;10.400;2023-02-12T19:53:04;29.32;27.83;34.00;;
64393;Laerm;50712;49.506;10.400;2023-02-12T19:53:34;29.57;28.23;35.46;;
64393;Laerm;50712;49.506;10.400;2023-02-12T19:54:05;29.70;28.08;33.73;;
64393;Laerm;50712;49.506;10.400;2023-02-12T19:54:39;29.57;28.09;32.03;;
64393;Laerm;50712;49.506;10.400;2023-02-12T19:55:09;29.56;28.12;34.48;;
64393;Laerm;50712;49.506;10.400;2023-02-12T19:55:40;29.78;28.17;31.57;;
64393;Laerm;50712;49.506;10.400;2023-02-12T19:56:10;29.97;28.20;40.16;;
64393;Laerm;50712;49.506;10.400;2023-02-12T19:56:41;46.41;28.03;69.09;;
64393;Laerm;50712;49.506;10.400;2023-02-12T19:57:11;30.91;28.23;46.89;;
64393;Laerm;50712;49.506;10.400;2023-02-12T19:57:42;30.65;28.33;45.33;;
64393;Laerm;50712;49.506;10.400;2023-02-12T19:58:12;30.08;28.33;34.58;;
64393;Laerm;50712;49.506;10.400;2023-02-12T19:58:43;44.34;28.53;53.10;;
64393;Laerm;50712;49.506;10.400;2023-02-12T19:59:16;37.87;29.64;48.09;;
64393;Laerm;50712;49.506;10.400;2023-02-12T19:59:46;37.11;35.41;40.97;;
64393;Laerm;50712;49.506;10.400;2023-02-12T20:00:17;37.53;35.48;49.21;;
64393;Laerm;50712;49.506;10.400;2023-02-12T20:00:48;37.39;35.44;39.83;;
64393;Laerm;50712;49.506;10.400;2023-02-12T20:01:19;37.45;34.66;43.82;;
64393;Laerm;50712;49.506;10.400;2023-02-12T20:01:50;38.06;35.16;47.85;;
64393;Laerm;50712;49.506;10.400;2023-02-12T20:02:20;36.89;35.38;39.16;;
64393;Laerm;50712;49.506;10.400;2023-02-12T20:02:50;36.74;35.20;37.84;;
64393;Laerm;50712;49.506;10.400;2023-02-12T20:03:21;36.83;35.20;38.45;;
64393;Laerm;50712;49.506;10.400;2023-02-12T20:03:52;36.83;35.29;38.12;;
64393;Laerm;50712;49.506;10.400;2023-02-12T20:04:24;36.86;35.21;38.00;;
64393;Laerm;50712;49.506;10.400;2023-02-12T20:04:54;39.39;35.12;61.07;;
64393;Laerm;50712;49.506;10.400;2023-02-12T20:05:25;36.65;33.65;48.12;;
64393;Laerm;50712;49.506;10.400;2023-02-12T20:06:00;36.02;33.37;39.57;;
64393;Laerm;50712;49.506;10.400;2023-02-12T20:06:35;35.82;33.83;37.73;;
64393;Laerm;50712;49.506;10.400;2023-02-12T20:07:06;35.76;34.10;37.38;;
64393;Laerm;50712;49.506;10.400;2023-02-12T20:07:37;36.22;34.00;45.17;;
64393;Laerm;50712;49.506;10.400;2023-02-12T20:08:07;37.85;34.45;53.42;;
64393;Laerm;50712;49.506;10.400;2023-02-12T20:08:39;46.95;33.56;57.50;;
64393;Laerm;50712;49.506;10.400;2023-02-12T20:09:11;32.40;28.48;39.52;;
64393;Laerm;50712;49.506;10.400;2023-02-12T20:09:41;30.36;28.51;33.11;;
64393;Laerm;50712;49.506;10.400;2023-02-12T20:10:12;29.56;28.04;31.75;;
64393;Laerm;50712;49.506;10.400;2023-02-12T20:10:42;29.53;27.97;32.15;;
64393;Laerm;50712;49.506;10.400;2023-02-12T20:11:15;29.76;28.09;40.98;;
64393;Laerm;50712;49.506;10.400;2023-02-12T20:11:46;29.32;28.05;31.89;;
64393;Laerm;50712;49.506;10.400;2023-02-12T20:12:17;29.50;27.96;32.35;;
64393;Laerm;50712;49.506;10.400;2023-02-12T20:12:47;29.68;28.34;32.20;;
64393;Laerm;50712;49.506;10.400;2023-02-12T20:13:17;30.03;28.65;31.97;;
64393;Laerm;50712;49.506;10.400;2023-02-12T20:13:50;32.04;28.87;39.22;;
64393;Laerm;50712;49.506;10.400;2023-02-12T20:14:21;32.98;28.40;55.83;;
64393;Laerm;50712;49.506;10.400;2023-02-12T20:14:53;29.86;28.45;33.19;;
64393;Laerm;50712;49.506;10.400;2023-02-12T20:15:23;29.74;28.28;32.04;;
64393;Laerm;50712;49.506;10.400;2023-02-12T20:16:27;30.05;28.12;36.97;;
64393;Laerm;50712;49.506;10.400;2023-02-12T20:17:00;29.40;27.79;31.56;;
64393;Laerm;50712;49.506;10.400;2023-02-12T20:17:30;29.91;28.20;32.48;;
64393;Laerm;50712;49.506;10.400;2023-02-12T20:18:05;30.59;28.90;33.44;;
64393;Laerm;50712;49.506;10.400;2023-02-12T20:18:37;31.77;28.98;42.94;;
64393;Laerm;50712;49.506;10.400;2023-02-12T20:19:22;32.96;29.74;39.33;;
64393;Laerm;50712;49.506;10.400;2023-02-12T20:19:53;33.20;29.12;54.89;;
64393;Laerm;50712;49.506;10.400;2023-02-12T20:20:23;31.60;29.32;45.23;;
64393;Laerm;50712;49.506;10.400;2023-02-12T20:20:53;30.89;28.73;40.65;;
64393;Laerm;50712;49.506;10.400;2023-02-12T20:21:26;30.77;28.59;47.78;;
64393;Laerm;50712;49.506;10.400;2023-02-12T20:21:58;30.06;28.55;37.10;;
64393;Laerm;50712;49.506;10.400;2023-02-12T20:22:30;30.59;28.42;46.13;;
64393;Laerm;50712;49.506;10.400;2023-02-12T20:23:01;30.26;28.48;32.96;;
64393;Laerm;50712;49.506;10.400;2023-02-12T20:23:31;30.03;28.41;33.20;;
64393;Laerm;50712;49.506;10.400;2023-02-12T20:24:02;29.75;28.16;31.82;;
64393;Laerm;50712;49.506;10.400;2023-02-12T20:24:33;29.72;28.31;32.57;;
64393;Laerm;50712;49.506;10.400;2023-02-12T20:25:03;30.20;28.44;33.44;;
64393;Laerm;50712;49.506;10.400;2023-02-12T20:25:34;31.92;28.47;37.47;;
64393;Laerm;50712;49.506;10.400;2023-02-12T20:26:05;30.29;27.80;41.74;;
64393;Laerm;50712;49.506;10.400;2023-02-12T20:26:36;30.50;28.44;47.25;;
64393;Laerm;50712;49.506;10.400;2023-02-12T20:27:07;30.82;28.51;47.22;;
64393;Laerm;50712;49.506;10.400;2023-02-12T20:27:37;30.80;28.69;37.20;;
64393;Laerm;50712;49.506;10.400;2023-02-12T20:28:07;31.30;28.83;36.06;;
64393;Laerm;50712;49.506;10.400;2023-02-12T20:28:39;30.21;28.62;32.12;;
64393;Laerm;50712;49.506;10.400;2023-02-12T20:29:09;29.62;28.22;32.92;;
64393;Laerm;50712;49.506;10.400;2023-02-12T20:29:39;29.78;28.13;32.08;;
64393;Laerm;50712;49.506;10.400;2023-02-12T20:30:10;30.20;28.49;32.73;;
64393;Laerm;50712;49.506;10.400;2023-02-12T20:30:42;29.76;28.11;31.82;;
64393;Laerm;50712;49.506;10.400;2023-02-12T20:31:16;29.81;28.50;31.92;;
64393;Laerm;50712;49.506;10.400;2023-02-12T20:32:17;29.52;28.04;31.08;;
64393;Laerm;50712;49.506;10.400;2023-02-12T20:32:47;29.74;28.36;32.63;;
64393;Laerm;50712;49.506;10.400;2023-02-12T20:33:18;29.70;28.13;34.18;;
64393;Laerm;50712;49.506;10.400;2023-02-12T20:33:58;29.64;28.25;31.39;;
64393;Laerm;50712;49.506;10.400;2023-02-12T20:34:28;29.82;28.24;31.74;;
64393;Laerm;50712;49.506;10.400;2023-02-12T20:34:59;30.02;28.25;37.71;;
64393;Laerm;50712;49.506;10.400;2023-02-12T20:35:29;31.77;28.46;45.25;;
64393;Laerm;50712;49.506;10.400;2023-02-12T20:36:00;30.80;28.44;42.12;;
64393;Laerm;50712;49.506;10.400;2023-02-12T20:36:33;29.47;27.85;31.74;;
64393;Laerm;50712;49.506;10.400;2023-02-12T20:37:04;29.70;27.90;32.32;;
64393;Laerm;50712;49.506;10.400;2023-02-12T20:37:35;29.82;28.19;37.71;;
64393;Laerm;50712;49.506;10.400;2023-02-12T20:38:06;29.91;27.95;32.62;;
64393;Laerm;50712;49.506;10.400;2023-02-12T20:38:40;29.58;28.19;32.47;;
64393;Laerm;50712;49.506;10.400;2023-02-12T20:39:14;29.66;28.32;32.04;;
64393;Laerm;50712;49.506;10.400;2023-02-12T20:39:45;30.11;28.23;34.40;;
64393;Laerm;50712;49.506;10.400;2023-02-12T20:40:15;30.16;28.60;35.41;;
64393;Laerm;50712;49.506;10.400;2023-02-12T20:40:46;29.99;28.61;31.67;;
64393;Laerm;50712;49.506;10.400;2023-02-12T20:41:16;30.22;28.59;32.39;;
64393;Laerm;50712;49.506;10.400;2023-02-12T20:41:47;30.38;28.29;35.63;;
64393;Laerm;50712;49.506;10.400;2023-02-12T20:42:18;30.30;28.30;37.13;;
64393;Laerm;50712;49.506;10.400;2023-02-12T20:42:48;31.34;28.94;34.80;;
64393;Laerm;50712;49.506;10.400;2023-02-12T20:43:18;32.07;29.31;38.15;;
64393;Laerm;50712;49.506;10.400;2023-02-12T20:43:49;31.01;28.85;34.27;;
64393;Laerm;50712;49.506;10.400;2023-02-12T20:44:20;29.64;28.18;32.48;;
64393;Laerm;50712;49.506;10.400;2023-02-12T20:44:53;30.33;28.12;33.49;;
64393;Laerm;50712;49.506;10.400;2023-02-12T20:45:23;30.27;28.05;32.77;;
64393;Laerm;50712;49.506;10.400;2023-02-12T20:45:54;30.71;28.37;44.62;;
64393;Laerm;50712;49.506;10.400;2023-02-12T20:46:25;29.74;28.11;31.58;;
64393;Laerm;50712;49.506;10.400;2023-02-12T20:46:56;29.79;28.27;32.01;;
64393;Laerm;50712;49.506;10.400;2023-02-12T20:47:26;29.62;27.92;31.38;;
64393;Laerm;50712;49.506;10.400;2023-02-12T20:48:00;29.29;27.93;31.36;;
64393;Laerm;50712;49.506;10.400;2023-02-12T20:48:30;30.05;28.23;34.89;;
64393;Laerm;50712;49.506;10.400;2023-02-12T20:49:01;33.46;29.11;42.11;;
64393;Laerm;50712;49.506;10.400;2023-02-12T20:49:31;37.84;29.48;52.06;;
64393;Laerm;50712;49.506;10.400;2023-02-12T20:50:02;38.34;29.77;54.96;;
64393;Laerm;50712;49.506;10.400;2023-02-12T20:50:33;40.46;29.64;58.25;;
64393;Laerm;50712;49.506;10.400;2023-02-12T20:51:08;42.03;29.79;55.72;;
64393;Laerm;50712;49.506;10.400;2023-02-12T20:51:39;39.64;30.34;51.37;;
64393;Laerm;50712;49.506;10.400;2023-02-12T20:52:10;40.61;29.97;55.06;;
64393;Laerm;50712;49.506;10.400;2023-02-12T20:52:40;40.62;30.08;54.08;;
64393;Laerm;50712;49.506;10.400;2023-02-12T20:53:10;38.63;28.60;52.90;;
64393;Laerm;50712;49.506;10.400;2023-02-12T20:53:41;30.88;28.36;45.23;;
64393;Laerm;50712;49.506;10.400;2023-02-12T20:54:12;33.46;28.27;48.01;;
64393;Laerm;50712;49.506;10.400;2023-02-12T20:54:42;29.31;27.74;37.29;;
64393;Laerm;50712;49.506;10.400;2023-02-12T20:55:13;29.89;28.02;32.08;;
64393;Laerm;50712;49.506;10.400;2023-02-12T20:55:43;29.59;28.04;32.84;;
64393;Laerm;50712;49.506;10.400;2023-02-12T20:56:17;29.79;28.15;31.75;;
64393;Laerm;50712;49.506;10.400;2023-02-12T20:56:48;30.66;28.89;33.93;;
64393;Laerm;50712;49.506;10.400;2023-02-12T20:57:19;30.17;28.38;32.65;;
64393;Laerm;50712;49.506;10.400;2023-02-12T20:57:50;30.35;28.58;42.26;;
64393;Laerm;50712;49.506;10.400;2023-02-12T20:58:20;31.23;29.28;34.90;;
64393;Laerm;50712;49.506;10.400;2023-02-12T20:58:51;30.24;28.85;32.74;;
64393;Laerm;50712;49.506;10.400;2023-02-12T20:59:22;30.74;28.78;36.40;;
64393;Laerm;50712;49.506;10.400;2023-02-12T20:59:52;30.22;28.63;32.21;;
64393;Laerm;50712;49.506;10.400;2023-02-12T21:00:23;31.66;28.62;36.73;;
64393;Laerm;50712;49.506;10.400;2023-02-12T21:00:53;32.03;29.42;37.86;;
64393;Laerm;50712;49.506;10.400;2023-02-12T21:01:29;32.96;29.91;36.92;;
64393;Laerm;50712;49.506;10.400;2023-02-12T21:02:01;31.94;29.02;40.69;;
64393;Laerm;50712;49.506;10.400;2023-02-12T21:02:32;30.77;28.85;33.24;;
64393;Laerm;50712;49.506;10.400;2023-02-12T21:03:02;30.37;28.86;32.27;;
64393;Laerm;50712;49.506;10.400;2023-02-12T21:03:35;30.80;28.42;44.35;;
64393;Laerm;50712;49.506;10.400;2023-02-12T21:04:08;30.66;28.72;34.42;;
64393;Laerm;50712;49.506;10.400;2023-02-12T21:04:39;31.65;28.70;47.12;;
64393;Laerm;50712;49.506;10.400;2023-02-12T21:05:09;31.40;28.47;51.26;;
64393;Laerm;50712;49.506;10.400;2023-02-12T21:05:40;30.84;28.58;42.66;;
64393;Laerm;50712;49.506;10.400;2023-02-12T21:06:11;30.39;28.63;31.99;;
64393;Laerm;50712;49.506;10.400;2023-02-12T21:06:42;30.01;28.50;32.24;;
64393;Laerm;50712;49.506;10.400;2023-02-12T21:07:13;30.65;28.91;32.31;;
64393;Laerm;50712;49.506;10.400;2023-02-12T21:07:44;30.07;28.70;38.14;;
64393;Laerm;50712;49.506;10.400;2023-02-12T21:08:14;30.15;28.66;38.64;;
64393;Laerm;50712;49.506;10.400;2023-02-12T21:08:45;30.84;29.05;36.57;;
64393;Laerm;50712;49.506;10.400;2023-02-12T21:09:15;33.54;30.09;38.23;;
64393;Laerm;50712;49.506;10.400;2023-02-12T21:09:46;33.67;29.91;39.03;;
64393;Laerm;50712;49.506;10.400;2023-02-12T21:10:16;32.96;29.84;36.96;;
64393;Laerm;50712;49.506;10.400;2023-02-12T21:10:47;34.13;29.92;38.00;;
64393;Laerm;50712;49.506;10.400;2023-02-12T21:11:20;32.44;29.39;37.62;;
64393;Laerm;50712;49.506;10.400;2023-02-12T21:11:51;31.92;29.29;35.34;;
64393;Laerm;50712;49.506;10.400;2023-02-12T21:12:51;29.98;28.43;31.90;;
64393;Laerm;50712;49.506;10.400;2023-02-12T21:13:22;30.00;28.30;32.17;;
64393;Laerm;50712;49.506;10.400;2023-02-12T21:13:54;31.16;29.15;33.40;;
64393;Laerm;50712;49.506;10.400;2023-02-12T21:14:25;30.11;28.37;32.74;;
64393;Laerm;50712;49.506;10.400;2023-02-12T21:14:55;30.85;28.88;33.30;;
64393;Laerm;50712;49.506;10.400;2023-02-12T21:15:26;31.62;29.52;34.79;;
64393;Laerm;50712;49.506;10.400;2023-02-12T21:16:37;32.04;28.90;43.33;;
64393;Laerm;50712;49.506;10.400;2023-02-12T21:17:08;31.12;28.79;34.58;;
64393;Laerm;50712;49.506;10.400;2023-02-12T21:17:38;30.44;28.65;33.80;;
64393;Laerm;50712;49.506;10.400;2023-02-12T21:18:08;30.93;28.75;33.06;;
64393;Laerm;50712;49.506;10.400;2023-02-12T21:18:39;30.80;28.66;34.44;;
64393;Laerm;50712;49.506;10.400;2023-02-12T21:19:10;30.39;28.60;33.82;;
64393;Laerm;50712;49.506;10.400;2023-02-12T21:20:13;30.85;28.49;35.89;;
64393;Laerm;50712;49.506;10.400;2023-02-12T21:20:43;30.25;28.28;33.60;;
64393;Laerm;50712;49.506;10.400;2023-02-12T21:21:22;30.19;28.43;32.32;;
64393;Laerm;50712;49.506;10.400;2023-02-12T21:21:53;30.34;28.47;34.37;;
64393;Laerm;50712;49.506;10.400;2023-02-12T21:22:24;30.41;28.61;33.14;;
64393;Laerm;50712;49.506;10.400;2023-02-12T21:22:54;32.71;28.32;47.48;;
64393;Laerm;50712;49.506;10.400;2023-02-12T21:23:24;30.27;28.77;33.39;;
64393;Laerm;50712;49.506;10.400;2023-02-12T21:23:56;30.26;28.53;32.30;;
64393;Laerm;50712;49.506;10.400;2023-02-12T21:24:27;29.84;28.56;32.37;;
64393;Laerm;50712;49.506;10.400;2023-02-12T21:24:57;29.56;28.12;32.72;;
64393;Laerm;50712;49.506;10.400;2023-02-12T21:25:27;29.75;28.15;31.80;;
64393;Laerm;50712;49.506;10.400;2023-02-12T21:25:59;30.69;28.61;35.44;;
64393;Laerm;50712;49.506;10.400;2023-02-12T21:26:31;32.65;28.67;44.57;;
64393;Laerm;50712;49.506;10.400;2023-02-12T21:27:02;30.42;28.59;34.89;;
64393;Laerm;50712;49.506;10.400;2023-02-12T21:27:32;37.44;28.19;58.01;;
64393;Laerm;50712;49.506;10.400;2023-02-12T21:28:05;30.98;27.69;43.33;;
64393;Laerm;50712;49.506;10.400;2023-02-12T21:28:36;31.25;28.37;40.08;;
64393;Laerm;50712;49.506;10.400;2023-02-12T21:29:06;33.82;28.89;48.11;;
64393;Laerm;50712;49.506;10.400;2023-02-12T21:29:37;31.01;28.56;33.80;;
64393;Laerm;50712;49.506;10.400;2023-02-12T21:30:08;30.43;28.76;33.29;;